| time (UTC) | temp F | wind direction | speed MPH | gust MPH | rain 1hr in | rain 24hr in | rain mn in | humidity % | barometer mb |
| 20260509171147 | 66 | 210 | 2.0 | 6.0 | 0.00 | 0.15 | 0.13 | 70 | 1007.1 |
| 20260509170128 | 65 | 218 | 1.0 | 8.0 | 0.00 | 0.15 | 0.13 | 70 | 1007.3 |
| 20260509165137 | 65 | 185 | 1.0 | 8.0 | 0.00 | 0.15 | 0.13 | 69 | 1007.4 |
| 20260509164138 | 65 | 223 | 1.0 | 7.0 | 0.00 | 0.15 | 0.13 | 70 | 1007.3 |
| 20260509163130 | 65 | 177 | 1.0 | 6.0 | 0.00 | 0.15 | 0.13 | 71 | 1007.3 |
| 20260509161000 | 64 | 242 | 1.0 | 5.0 | 0.00 | 0.15 | 0.13 | 76 | 1007.2 |
| 20260509160023 | 63 | 236 | 1.0 | 5.0 | 0.00 | 0.15 | 0.13 | 76 | 1007.3 |
| 20260509155002 | 62 | 200 | 1.0 | 6.0 | 0.00 | 0.15 | 0.13 | 80 | 1007.2 |
| 20260509152841 | 62 | 194 | 1.0 | 6.0 | 0.00 | 0.15 | 0.13 | 80 | 1007.1 |
| 20260509151903 | 61 | 123 | 1.0 | 7.0 | 0.00 | 0.15 | 0.13 | 80 | 1007.2 |
| 20260509150901 | 62 | 230 | 1.0 | 7.0 | 0.00 | 0.15 | 0.13 | 80 | 1007.2 |
| 20260509145848 | 61 | 231 | 0.0 | 6.0 | 0.00 | 0.15 | 0.13 | 83 | 1007.0 |
| 20260509144844 | 61 | 250 | 0.0 | 7.0 | 0.00 | 0.15 | 0.13 | 84 | 1006.8 |
| 20260509143901 | 60 | 224 | 1.0 | 7.0 | 0.00 | 0.15 | 0.13 | 86 | 1006.6 |
| 20260509142923 | 59 | 311 | 1.0 | 4.0 | 0.00 | 0.15 | 0.13 | 87 | 1006.7 |
| 20260509141926 | 59 | 171 | 0.0 | 4.0 | 0.00 | 0.15 | 0.13 | 90 | 1006.7 |
| 20260509140929 | 58 | 204 | 0.0 | 4.0 | 0.00 | 0.15 | 0.13 | 91 | 1006.8 |
| 20260509135918 | 57 | 274 | 0.0 | 3.0 | 0.00 | 0.15 | 0.13 | 92 | 1006.9 |
| 20260509134848 | 57 | 201 | 0.0 | 3.0 | 0.00 | 0.15 | 0.13 | 93 | 1007.0 |
| 20260509133904 | 56 | 275 | 0.0 | 3.0 | 0.00 | 0.15 | 0.13 | 94 | 1007.2 |
| 20260509132835 | 56 | 213 | 0.0 | 1.0 | 0.00 | 0.15 | 0.13 | 95 | 1007.1 |
| 20260509130719 | 55 | 252 | 0.0 | 0.0 | 0.00 | 0.15 | 0.13 | 95 | 1007.1 |
| 20260509125741 | 55 | 252 | 0.0 | 0.0 | 0.00 | 0.15 | 0.13 | 95 | 1007.0 |
| 20260509124708 | 54 | 253 | 0.0 | 0.0 | 0.00 | 0.15 | 0.13 | 95 | 1007.0 |
| 20260509123731 | 54 | 253 | 0.0 | 0.0 | 0.00 | 0.15 | 0.13 | 95 | 1007.2 |
| 20260509122741 | 54 | 253 | 0.0 | 0.0 | 0.00 | 0.15 | 0.13 | 95 | 1007.4 |
| 20260509121803 | 53 | 253 | 0.0 | 0.0 | 0.00 | 0.15 | 0.13 | 95 | 1007.4 |
| 20260509120740 | 53 | 253 | 0.0 | 0.0 | 0.00 | 0.15 | 0.13 | 95 | 1007.1 |
| 20260509114631 | 53 | 253 | 0.0 | 0.0 | 0.00 | 0.14 | 0.12 | 95 | 1007.0 |
| 20260509113612 | 53 | 253 | 0.0 | 0.0 | 0.00 | 0.14 | 0.12 | 95 | 1006.7 |
| 20260509112625 | 53 | 253 | 0.0 | 0.0 | 0.00 | 0.14 | 0.12 | 94 | 1007.0 |
| 20260509111640 | 53 | 254 | 0.0 | 0.0 | 0.00 | 0.14 | 0.12 | 94 | 1007.2 |
| 20260509110657 | 53 | 254 | 0.0 | 0.0 | 0.00 | 0.14 | 0.12 | 94 | 1007.2 |
| 20260509105719 | 53 | 254 | 0.0 | 0.0 | 0.00 | 0.14 | 0.12 | 94 | 1006.9 |
| 20260509104719 | 53 | 254 | 0.0 | 0.0 | 0.00 | 0.14 | 0.12 | 94 | 1007.1 |
| 20260509103742 | 53 | 254 | 0.0 | 0.0 | 0.00 | 0.14 | 0.12 | 94 | 1007.1 |
| 20260509102802 | 53 | 254 | 0.0 | 0.0 | 0.00 | 0.14 | 0.12 | 94 | 1007.1 |
| 20260509101809 | 53 | 254 | 0.0 | 0.0 | 0.00 | 0.14 | 0.12 | 94 | 1007.2 |
| 20260509100818 | 53 | 254 | 0.0 | 1.0 | 0.00 | 0.14 | 0.12 | 94 | 1007.2 |
| 20260509095813 | 53 | 254 | 0.0 | 2.0 | 0.00 | 0.14 | 0.12 | 94 | 1007.2 |
| 20260509093713 | 53 | 214 | 0.0 | 0.0 | 0.00 | 0.12 | 0.10 | 94 | 1007.2 |
| 20260509091633 | 54 | 288 | 0.0 | 0.0 | 0.00 | 0.11 | 0.10 | 94 | 1007.2 |
| 20260509090642 | 54 | 288 | 0.0 | 0.0 | 0.00 | 0.11 | 0.10 | 94 | 1007.2 |
| 20260509085627 | 54 | 290 | 0.0 | 3.0 | 0.00 | 0.11 | 0.10 | 94 | 1007.2 |
| 20260509084621 | 54 | 219 | 0.0 | 0.0 | 0.00 | 0.11 | 0.10 | 94 | 1007.3 |
| 20260509083558 | 54 | 219 | 0.0 | 0.0 | 0.00 | 0.11 | 0.10 | 94 | 1007.3 |
| 20260509082537 | 54 | 219 | 0.0 | 0.0 | 0.00 | 0.11 | 0.10 | 94 | 1007.2 |
| 20260509081528 | 54 | 219 | 0.0 | 0.0 | 0.00 | 0.11 | 0.10 | 94 | 1007.3 |
| 20260509080541 | 54 | 211 | 0.0 | 1.0 | 0.00 | 0.11 | 0.10 | 94 | 1007.6 |
| 20260509075531 | 54 | 211 | 0.0 | 0.0 | 0.05 | 0.11 | 0.10 | 94 | 1007.6 |
| 20260509074523 | 54 | 212 | 0.0 | 0.0 | 0.10 | 0.11 | 0.10 | 94 | 1007.8 |
| 20260509073457 | 54 | 212 | 0.0 | 0.0 | 0.00 | 0.10 | 0.08 | 94 | 1007.9 |
| 20260509072442 | 54 | 212 | 0.0 | 0.0 | 0.00 | 0.10 | 0.08 | 93 | 1007.9 |
| 20260509071422 | 54 | 212 | 0.0 | 0.0 | 0.00 | 0.10 | 0.08 | 93 | 1008.0 |
| 20260509070417 | 54 | 212 | 0.0 | 0.0 | 0.05 | 0.10 | 0.08 | 93 | 1008.0 |
| 20260509065438 | 54 | 212 | 0.0 | 0.0 | 0.08 | 0.10 | 0.08 | 93 | 1008.0 |
| 20260509064429 | 54 | 212 | 0.0 | 1.0 | 0.06 | 0.08 | 0.06 | 93 | 1008.1 |
| 20260509063400 | 54 | 212 | 0.0 | 0.0 | 0.05 | 0.06 | 0.05 | 93 | 1008.2 |
| 20260509062348 | 54 | 212 | 0.0 | 0.0 | 0.06 | 0.06 | 0.05 | 92 | 1008.2 |
| 20260509061346 | 54 | 212 | 0.0 | 0.0 | 0.06 | 0.06 | 0.04 | 92 | 1008.3 |
| 20260509060350 | 54 | 213 | 0.0 | 0.0 | 0.00 | 0.05 | 0.03 | 92 | 1008.4 |
| 20260509055348 | 54 | 213 | 0.0 | 1.0 | 0.00 | 0.04 | 0.02 | 92 | 1008.6 |
| 20260509054358 | 54 | 213 | 0.0 | 0.0 | 0.00 | 0.04 | 0.02 | 92 | 1008.6 |
| 20260509053343 | 54 | 213 | 0.0 | 1.0 | 0.00 | 0.03 | 0.01 | 92 | 1008.5 |
| 20260509051250 | 54 | 286 | 0.0 | 0.0 | 0.00 | 0.03 | 0.01 | 91 | 1008.8 |
| 20260509050222 | 54 | 286 | 0.0 | 0.0 | 0.00 | 0.03 | 0.01 | 91 | 1008.7 |
| 20260509045230 | 54 | 286 | 0.0 | 0.0 | 0.00 | 0.03 | 0.01 | 91 | 1008.7 |
| 20260509044249 | 54 | 286 | 0.0 | 0.0 | 0.00 | 0.02 | 0.00 | 91 | 1008.8 |
| 20260509043227 | 54 | 287 | 0.0 | 0.0 | 0.00 | 0.02 | 0.00 | 91 | 1008.6 |
| 20260509042157 | 54 | 288 | 0.0 | 0.0 | 0.00 | 0.02 | 0.00 | 91 | 1008.9 |
| 20260509041137 | 54 | 35 | 0.0 | 0.0 | 0.00 | 0.02 | 0.00 | 91 | 1009.1 |
| 20260509040138 | 54 | 35 | 0.0 | 0.0 | 0.00 | 0.02 | 0.00 | 91 | 1009.2 |
| 20260509035115 | 54 | 40 | 0.0 | 0.0 | 0.00 | 0.02 | 0.02 | 92 | 1009.2 |
| 20260509034101 | 54 | 39 | 0.0 | 0.0 | 0.00 | 0.02 | 0.02 | 92 | 1009.4 |
| 20260509033031 | 54 | 39 | 0.0 | 0.0 | 0.00 | 0.02 | 0.02 | 92 | 1009.7 |
| 20260509032031 | 54 | 39 | 0.0 | 0.0 | 0.00 | 0.01 | 0.01 | 91 | 1009.8 |
| 20260509031026 | 55 | 39 | 0.0 | 0.0 | 0.00 | 0.01 | 0.01 | 91 | 1009.7 |
| 20260509030026 | 55 | 39 | 0.0 | 0.0 | 0.00 | 0.01 | 0.01 | 91 | 1009.7 |
| 20260509024956 | 54 | 40 | 0.0 | 0.0 | 0.00 | 0.01 | 0.01 | 91 | 1009.8 |
| 20260509022745 | 55 | 39 | 0.0 | 0.0 | 0.00 | 0.01 | 0.01 | 90 | 1009.9 |
| 20260509021711 | 55 | 39 | 0.0 | 0.0 | 0.00 | 0.01 | 0.01 | 89 | 1009.9 |
| 20260509020728 | 55 | 39 | 0.0 | 0.0 | 0.00 | 0.01 | 0.01 | 89 | 1009.8 |
| 20260509015700 | 55 | 39 | 0.0 | 0.0 | 0.00 | 0.01 | 0.01 | 88 | 1009.9 |
| 20260509014643 | 55 | 40 | 0.0 | 0.0 | 0.00 | 0.01 | 0.01 | 88 | 1009.9 |
| 20260509013621 | 56 | 39 | 0.0 | 0.0 | 0.00 | 0.01 | 0.01 | 87 | 1009.4 |
| 20260509012617 | 56 | 39 | 0.0 | 0.0 | 0.00 | 0.01 | 0.01 | 87 | 1009.8 |
| 20260509011606 | 56 | 39 | 0.0 | 0.0 | 0.00 | 0.01 | 0.01 | 86 | 1009.6 |
| 20260509010620 | 56 | 39 | 0.0 | 0.0 | 0.00 | 0.01 | 0.01 | 85 | 1009.6 |
| 20260509005555 | 57 | 247 | 0.0 | 0.0 | 0.00 | 0.01 | 0.01 | 84 | 1009.5 |
| 20260509002419 | 58 | 247 | 0.0 | 0.0 | 0.00 | 0.00 | 0.00 | 80 | 1009.0 |
| 20260509001429 | 59 | 247 | 0.0 | 0.0 | 0.00 | 0.00 | 0.00 | 78 | 1009.0 |
| 20260509000450 | 59 | 247 | 0.0 | 0.0 | 0.00 | 0.00 | 0.00 | 74 | 1009.1 |
| 20260508235427 | 60 | 247 | 0.0 | 0.0 | 0.00 | 0.00 | 0.00 | 71 | 1009.2 |
| 20260508234433 | 61 | 247 | 0.0 | 0.0 | 0.00 | 0.00 | 0.00 | 67 | 1008.9 |
| 20260508233457 | 61 | 247 | 0.0 | 0.0 | 0.00 | 0.00 | 0.00 | 64 | 1009.0 |
| 20260508231359 | 62 | 247 | 0.0 | 0.0 | 0.00 | 0.00 | 0.00 | 58 | 1009.0 |
| 20260508225245 | 63 | 246 | 0.0 | 0.0 | 0.00 | 0.00 | 0.00 | 56 | 1009.0 |
| 20260508224222 | 64 | 245 | 0.0 | 0.0 | 0.00 | 0.00 | 0.00 | 56 | 1009.0 |
| 20260508223231 | 64 | 245 | 0.0 | 2.0 | 0.00 | 0.00 | 0.00 | 55 | 1008.9 |
| 20260508222232 | 64 | 246 | 0.0 | 1.0 | 0.00 | 0.00 | 0.00 | 53 | 1008.8 |
| 20260508221216 | 64 | 250 | 0.0 | 1.0 | 0.00 | 0.00 | 0.00 | 52 | 1008.7 |
| 20260508220215 | 65 | 250 | 0.0 | 2.0 | 0.00 | 0.00 | 0.00 | 51 | 1008.8 |
| 20260508215151 | 65 | 218 | 0.0 | 2.0 | 0.00 | 0.00 | 0.00 | 50 | 1008.6 |
| 20260508214128 | 65 | 197 | 0.0 | 3.0 | 0.00 | 0.00 | 0.00 | 47 | 1008.6 |
| 20260508213134 | 65 | 213 | 0.0 | 3.0 | 0.00 | 0.00 | 0.00 | 47 | 1008.8 |
| 20260508212105 | 65 | 236 | 1.0 | 8.0 | 0.00 | 0.00 | 0.00 | 47 | 1008.9 |
| 20260508211100 | 66 | 226 | 2.0 | 8.0 | 0.00 | 0.00 | 0.00 | 45 | 1008.9 |
| 20260508210029 | 66 | 200 | 1.0 | 6.0 | 0.00 | 0.00 | 0.00 | 47 | 1008.9 |
| 20260508204958 | 66 | 239 | 1.0 | 6.0 | 0.00 | 0.00 | 0.00 | 48 | 1008.9 |
| 20260508203956 | 66 | 278 | 1.0 | 6.0 | 0.00 | 0.00 | 0.00 | 48 | 1008.9 |
| 20260508202947 | 66 | 210 | 0.0 | 6.0 | 0.00 | 0.00 | 0.00 | 49 | 1009.0 |
| 20260508201955 | 65 | 192 | 1.0 | 6.0 | 0.00 | 0.00 | 0.00 | 50 | 1009.2 |
| 20260508200947 | 65 | 202 | 1.0 | 6.0 | 0.00 | 0.00 | 0.00 | 50 | 1009.4 |
| 20260508194855 | 65 | 202 | 1.0 | 7.0 | 0.00 | 0.00 | 0.00 | 48 | 1009.7 |
| 20260508193854 | 66 | 262 | 1.0 | 7.0 | 0.00 | 0.00 | 0.00 | 49 | 1009.8 |
| 20260508192823 | 65 | 186 | 0.0 | 3.0 | 0.00 | 0.00 | 0.00 | 50 | 1009.9 |
| 20260508191749 | 65 | 236 | 0.0 | 3.0 | 0.00 | 0.00 | 0.00 | 52 | 1009.9 |
| 20260508190731 | 65 | 231 | 0.0 | 3.0 | 0.00 | 0.00 | 0.00 | 50 | 1010.2 |
| 20260508185749 | 66 | 215 | 1.0 | 6.0 | 0.00 | 0.00 | 0.00 | 49 | 1010.3 |
| 20260508184759 | 67 | 223 | 2.0 | 7.0 | 0.00 | 0.00 | 0.00 | 49 | 1010.3 |
| 20260508182616 | 67 | 203 | 1.0 | 7.0 | 0.00 | 0.00 | 0.00 | 48 | 1010.4 |
| 20260508181548 | 67 | 202 | 1.0 | 7.0 | 0.00 | 0.00 | 0.00 | 48 | 1010.8 |
| 20260508175419 | 65 | 269 | 1.0 | 5.0 | 0.00 | 0.00 | 0.00 | 51 | 1011.3 |
| 20260508174357 | 65 | 286 | 1.0 | 5.0 | 0.00 | 0.00 | 0.00 | 54 | 1011.5 |
| 20260508173421 | 64 | 229 | 0.0 | 4.0 | 0.00 | 0.00 | 0.00 | 54 | 1011.7 |
| 20260508172427 | 63 | 193 | 0.0 | 2.0 | 0.00 | 0.00 | 0.00 | 54 | 1012.0 |